aviador You're here:

ZBTJ Decoded Metar

TIANJIN in CHINA
Report Time2017-04-24 13:00:00
UTC Time2017-04-24 13:14:16
Flight Rules mvfr MVFR
Wind140° at 4 kt
W.Decomp.*RWY 16: 3.9 kt HW 1 kt LCW
W.Rank140° ranks 24
Current wind is below 140° avg. (5.9)
Visibility7000 m
Phenomena:N/A
Clouds:N/A
Expected CloudBase > 2,400 ft AGL from Temp-Dew spread
CeilingNone
Temp13°C (ISA -2)
Dew Point07°C (67% RH)
AAT10.9°C
QNH1016 hPa
Density Alt-190 ft
Elevation10 ft
Report Wrong Elevation
Raw Report
ZBTJ 241300Z 14002MPS 070V180 7000 NSC 13/07 Q1016 NOSIG=

Extra information for ZBTJ:More info

Metar Taf Metar & Taf Last 4 Metars F.Rules Stats Wind Profile Meteogram Temp Stats Airport Information Weather charts Add Link Nearby VenuesMetar ALERT Operation Metar Decoded Social comments